Time;durP1;ratioP1;P1;durP2;ratioP2;P2;SDS_P1;SDS_P2;PMS_P1;PMS_P2;Temp;Humidity;BMP_temperature;BMP_pressure;BME280_temperature;BME280_humidity;BME280_pressure;Samples;Min_cycle;Max_cycle;Signal;HPM_P1;HPM_P2
2022/12/10 00:00:19;;;;;;;3.97;3.77;;;16.90;64.50;;;;;;5105974;27;43528;-77
2022/12/10 00:02:47;;;;;;;3.90;3.80;;;16.90;64.50;;;;;;5099572;27;43787;-77
2022/12/10 00:05:15;;;;;;;4.03;3.83;;;16.90;64.70;;;;;;5104100;27;44055;-77
2022/12/10 00:07:43;;;;;;;3.40;3.30;;;16.90;65.00;;;;;;5110506;27;43537;-76
2022/12/10 00:10:11;;;;;;;3.80;3.70;;;17.00;64.70;;;;;;5107079;27;43605;-74
2022/12/10 00:12:41;;;;;;;3.67;3.57;;;17.00;64.20;;;;;;5097332;27;44056;-76
2022/12/10 00:15:11;;;;;;;3.70;3.57;;;17.00;64.20;;;;;;5105791;27;43476;-77
2022/12/10 00:17:39;;;;;;;3.90;3.80;;;17.00;64.20;;;;;;5105060;27;43543;-75
2022/12/10 00:20:08;;;;;;;3.50;3.40;;;16.90;64.20;;;;;;5104255;27;43512;-78
2022/12/10 00:22:36;;;;;;;3.83;3.73;;;17.00;64.60;;;;;;5101498;27;44977;-78
2022/12/10 00:25:05;;;;;;;4.30;4.10;;;17.00;64.50;;;;;;5101997;27;44084;-76
2022/12/10 00:27:32;;;;;;;3.57;3.47;;;16.90;64.40;;;;;;5104506;27;43445;-78
2022/12/10 00:30:00;;;;;;;3.90;3.80;;;16.90;64.40;;;;;;5110133;27;43443;-75
2022/12/10 00:32:30;;;;;;;3.93;3.83;;;16.90;64.50;;;;;;5101789;27;43959;-77
2022/12/10 00:34:58;;;;;;;3.80;3.70;;;16.90;64.50;;;;;;5098137;27;44206;-76
2022/12/10 00:37:26;;;;;;;3.53;3.43;;;16.90;64.80;;;;;;5098661;27;43592;-76
2022/12/10 00:39:54;;;;;;;3.73;3.63;;;16.90;65.00;;;;;;5113129;27;43457;-77
2022/12/10 00:42:22;;;;;;;3.80;3.70;;;17.00;64.70;;;;;;5095510;27;44326;-76
2022/12/10 00:44:52;;;;;;;3.40;3.30;;;17.10;64.20;;;;;;5094958;27;43426;-78
2022/12/10 00:47:20;;;;;;;3.37;3.27;;;17.10;64.00;;;;;;5110069;27;43422;-77
2022/12/10 00:49:49;;;;;;;3.57;3.47;;;17.10;64.00;;;;;;5108194;27;43546;-78
2022/12/10 00:52:17;;;;;;;3.73;3.63;;;17.00;64.00;;;;;;5101073;27;46847;-77
2022/12/10 00:54:45;;;;;;;3.40;3.30;;;17.00;64.30;;;;;;5110404;27;43491;-72
2022/12/10 00:57:13;;;;;;;3.53;3.43;;;17.00;64.10;;;;;;5116111;27;44031;-76
2022/12/10 00:59:42;;;;;;;3.50;3.40;;;17.00;64.10;;;;;;5102218;27;43550;-75
2022/12/10 01:02:10;;;;;;;3.77;3.67;;;17.00;64.20;;;;;;5101007;27;43946;-76
2022/12/10 01:04:38;;;;;;;3.40;3.30;;;17.00;64.30;;;;;;5111525;27;44048;-77
2022/12/10 01:07:10;;;;;;;3.40;3.30;;;16.90;64.30;;;;;;5106637;27;43474;-77
2022/12/10 01:09:38;;;;;;;3.33;3.23;;;16.90;64.60;;;;;;5103308;27;44065;-77
2022/12/10 01:12:07;;;;;;;3.20;3.10;;;16.90;64.50;;;;;;5106613;27;45932;-77
2022/12/10 01:14:35;;;;;;;3.30;3.20;;;16.90;64.40;;;;;;5104598;27;44740;-76
2022/12/10 01:17:04;;;;;;;3.63;3.53;;;16.90;64.40;;;;;;5093621;27;43469;-76
2022/12/10 01:19:32;;;;;;;3.40;3.30;;;16.90;64.50;;;;;;5103883;27;43553;-76
2022/12/10 01:22:02;;;;;;;3.40;3.30;;;16.90;64.50;;;;;;5107214;27;43985;-76
2022/12/10 01:24:32;;;;;;;3.43;3.33;;;16.90;64.80;;;;;;5103980;27;43879;-77
2022/12/10 01:27:00;;;;;;;3.33;3.23;;;16.90;64.50;;;;;;5103516;27;43529;-72
2022/12/10 01:29:28;;;;;;;3.30;3.20;;;16.90;64.50;;;;;;5107487;27;43501;-77
2022/12/10 01:31:57;;;;;;;3.03;2.93;;;16.90;64.50;;;;;;5109684;27;45646;-74
2022/12/10 01:34:25;;;;;;;3.40;3.30;;;16.80;64.40;;;;;;5100506;27;44566;-78
2022/12/10 01:36:56;;;;;;;3.27;3.17;;;16.90;64.60;;;;;;5098218;27;44001;-76
2022/12/10 01:39:24;;;;;;;3.10;3.00;;;16.80;64.60;;;;;;5108944;27;44185;-77
2022/12/10 01:41:55;;;;;;;3.30;3.20;;;16.80;64.90;;;;;;5093818;27;43726;-76
2022/12/10 01:44:57;;;;;;;3.20;3.10;;;16.90;64.80;;;;;;5094224;27;45536;-77
2022/12/10 01:47:27;;;;;;;3.23;3.13;;;17.00;64.30;;;;;;5099015;27;43459;-76
2022/12/10 01:49:55;;;;;;;3.17;3.10;;;17.10;63.80;;;;;;5101186;27;44789;-76
2022/12/10 01:52:23;;;;;;;2.87;2.87;;;17.10;63.80;;;;;;5106485;27;43914;-75
2022/12/10 01:54:51;;;;;;;3.10;3.00;;;17.10;63.90;;;;;;5090290;27;44850;-77
2022/12/10 01:57:22;;;;;;;3.20;3.10;;;17.00;64.10;;;;;;5102005;27;43498;-75
2022/12/10 01:59:52;;;;;;;3.20;3.10;;;17.00;63.90;;;;;;5114730;27;43948;-79
2022/12/10 02:02:25;;;;;;;3.27;3.17;;;17.00;63.90;;;;;;5101529;27;45838;-73
2022/12/10 02:05:05;;;;;;;3.20;3.10;;;17.00;63.90;;;;;;5096170;27;43486;-71
2022/12/10 02:07:39;;;;;;;3.37;3.27;;;17.00;64.00;;;;;;5096555;27;43535;-72
2022/12/10 02:10:09;;;;;;;3.30;3.20;;;16.90;64.10;;;;;;5113285;27;43548;-71
2022/12/10 02:12:45;;;;;;;2.90;2.90;;;16.90;64.40;;;;;;5098967;27;43897;-74
2022/12/10 02:15:15;;;;;;;3.00;3.00;;;16.90;64.30;;;;;;5102867;27;43394;-73
2022/12/10 02:17:44;;;;;;;3.10;3.00;;;16.90;64.30;;;;;;5089702;27;43521;-72
2022/12/10 02:20:15;;;;;;;3.50;3.40;;;16.90;64.30;;;;;;5112345;27;43518;-72
2022/12/10 02:22:45;;;;;;;2.97;2.87;;;16.90;64.20;;;;;;5097528;27;45684;-71
2022/12/10 02:25:13;;;;;;;3.27;3.17;;;16.80;64.20;;;;;;5105096;27;43508;-71
2022/12/10 02:27:47;;;;;;;3.17;3.07;;;16.90;64.50;;;;;;5102468;27;44110;-72
2022/12/10 02:30:16;;;;;;;3.10;3.00;;;16.90;64.90;;;;;;5095507;27;43820;-72
2022/12/10 02:32:44;;;;;;;3.17;3.07;;;16.90;64.50;;;;;;5104376;27;45383;-71
2022/12/10 02:35:17;;;;;;;3.23;3.13;;;17.00;64.00;;;;;;5099407;27;44890;-72
2022/12/10 02:37:46;;;;;;;2.60;2.60;;;17.00;63.90;;;;;;5113910;27;43496;-71
2022/12/10 02:40:20;;;;;;;2.80;2.80;;;17.00;63.90;;;;;;5099885;27;43471;-73
2022/12/10 02:42:51;;;;;;;2.60;2.60;;;17.00;64.10;;;;;;5104473;27;44067;-72
2022/12/10 02:45:23;;;;;;;2.97;2.93;;;16.90;64.30;;;;;;5111360;27;44608;-72
2022/12/10 02:47:54;;;;;;;2.70;2.70;;;16.90;64.10;;;;;;5099043;27;43525;-73
2022/12/10 02:50:23;;;;;;;3.00;2.90;;;16.90;64.10;;;;;;5108023;27;44522;-72
2022/12/10 02:52:51;;;;;;;2.70;2.70;;;16.90;64.10;;;;;;5105763;27;43978;-72
2022/12/10 02:55:20;;;;;;;2.90;2.80;;;16.90;64.10;;;;;;5105339;27;44711;-71
2022/12/10 02:57:59;;;;;;;2.77;2.70;;;16.90;64.20;;;;;;5105254;27;43977;-72
2022/12/10 03:00:29;;;;;;;2.70;2.70;;;16.90;64.50;;;;;;5105487;27;43483;-71
2022/12/10 03:03:21;;;;;;;2.50;2.50;;;16.90;64.40;;;;;;5105010;27;43904;-71
2022/12/10 03:05:51;;;;;;;3.03;3.00;;;16.90;64.40;;;;;;5088822;27;43354;-73
2022/12/10 03:08:21;;;;;;;2.87;2.87;;;16.90;64.30;;;;;;5108284;27;43433;-73
2022/12/10 03:10:52;;;;;;;2.73;2.73;;;16.80;64.30;;;;;;5096673;27;43421;-72
2022/12/10 03:13:22;;;;;;;2.80;2.80;;;16.80;64.20;;;;;;5100019;27;44309;-71
2022/12/10 03:15:52;;;;;;;2.93;2.83;;;16.80;64.60;;;;;;5109655;27;43504;-71
2022/12/10 03:18:20;;;;;;;2.67;2.57;;;16.90;64.90;;;;;;5100535;27;43443;-71
2022/12/10 03:20:48;;;;;;;2.50;2.50;;;16.90;64.50;;;;;;5103035;27;43790;-73
2022/12/10 03:23:18;;;;;;;2.60;2.60;;;17.00;64.10;;;;;;5102988;27;44111;-72
2022/12/10 03:25:47;;;;;;;2.97;2.93;;;17.00;63.70;;;;;;5101039;27;43442;-72
2022/12/10 03:28:15;;;;;;;2.57;2.57;;;17.00;63.70;;;;;;5108603;27;43900;-72
2022/12/10 03:30:43;;;;;;;2.80;2.70;;;17.00;63.80;;;;;;5109130;27;43513;-73
2022/12/10 03:33:12;;;;;;;2.93;2.83;;;17.00;64.10;;;;;;5098259;27;43774;-72
2022/12/10 03:35:40;;;;;;;2.60;2.60;;;17.00;63.80;;;;;;5105261;27;44068;-72
2022/12/10 03:38:08;;;;;;;2.60;2.60;;;17.00;63.90;;;;;;5101518;27;43818;-71
2022/12/10 03:40:36;;;;;;;2.67;2.60;;;17.00;63.90;;;;;;5112445;27;43400;-72
2022/12/10 03:43:04;;;;;;;2.63;2.53;;;16.90;63.90;;;;;;5107282;27;45681;-73
2022/12/10 03:45:32;;;;;;;2.97;2.87;;;16.90;64.00;;;;;;5100198;27;43469;-71
2022/12/10 03:47:59;;;;;;;2.83;2.83;;;16.90;64.30;;;;;;5096847;27;43507;-72
2022/12/10 03:50:29;;;;;;;2.50;2.50;;;16.80;64.20;;;;;;5115200;27;43533;-72
2022/12/10 03:52:57;;;;;;;2.60;2.60;;;16.90;64.20;;;;;;5112587;27;43621;-72
2022/12/10 03:55:25;;;;;;;2.50;2.50;;;16.90;64.20;;;;;;5101979;27;43494;-72
2022/12/10 03:57:53;;;;;;;2.73;2.73;;;16.90;64.20;;;;;;5111130;27;43471;-72
2022/12/10 04:00:21;;;;;;;2.93;2.83;;;16.80;64.10;;;;;;5112939;27;43427;-72
2022/12/10 04:02:49;;;;;;;2.70;2.70;;;16.80;64.10;;;;;;5108577;27;43934;-71
2022/12/10 04:05:17;;;;;;;2.50;2.50;;;16.80;64.50;;;;;;5104289;27;43443;-72
2022/12/10 04:07:46;;;;;;;3.00;3.00;;;16.80;64.60;;;;;;5107911;27;43513;-73
2022/12/10 04:10:15;;;;;;;3.07;2.97;;;17.00;64.40;;;;;;5105720;27;43920;-72
2022/12/10 04:16:26;;;;;;;2.83;2.83;;;17.00;63.80;;;;;;5099885;27;43887;-72
2022/12/10 04:18:16;;;;;;;2.60;2.60;;;17.00;63.80;;;;;;5110689;27;45078;-71
2022/12/10 04:29:01;;;;;;;9.20;5.00;;;16.90;64.00;;;;;;5106527;27;43488;-72
2022/12/10 04:31:29;;;;;;;8.40;5.33;;;16.90;64.10;;;;;;5115594;27;43494;-73
2022/12/10 04:33:57;;;;;;;9.03;5.77;;;16.80;64.10;;;;;;5102824;27;43708;-72
2022/12/10 04:36:25;;;;;;;12.00;6.37;;;16.80;64.20;;;;;;5098554;27;43454;-72
2022/12/10 04:38:54;;;;;;;16.40;7.47;;;16.80;64.40;;;;;;5106792;27;44041;-72
2022/12/10 04:41:22;;;;;;;14.87;6.87;;;16.80;64.20;;;;;;5103408;27;43488;-72
2022/12/10 04:43:50;;;;;;;15.10;7.37;;;16.80;64.10;;;;;;5110905;27;45201;-72
2022/12/10 04:46:18;;;;;;;14.40;8.17;;;16.80;64.10;;;;;;5099379;27;44128;-73
2022/12/10 04:48:46;;;;;;;16.67;8.30;;;16.80;64.10;;;;;;5108094;27;43447;-72
2022/12/10 04:51:14;;;;;;;19.57;8.50;;;16.80;64.10;;;;;;5097918;27;43548;-72
2022/12/10 04:53:42;;;;;;;21.27;9.10;;;16.80;64.30;;;;;;5101353;27;44018;-71
2022/12/10 04:56:11;;;;;;;18.80;8.83;;;16.80;64.00;;;;;;5104854;27;43449;-72
2022/12/10 04:58:39;;;;;;;18.80;7.93;;;16.90;64.10;;;;;;5102677;27;44052;-71
2022/12/10 05:01:09;;;;;;;18.73;8.70;;;16.90;64.10;;;;;;5095247;27;43480;-72
2022/12/10 05:03:37;;;;;;;22.77;9.20;;;16.90;64.10;;;;;;5101119;27;45027;-72
2022/12/10 05:06:05;;;;;;;18.93;8.87;;;16.80;64.00;;;;;;5106693;27;43481;-73
2022/12/10 05:08:33;;;;;;;20.97;8.93;;;16.90;64.20;;;;;;5108045;27;43472;-73
2022/12/10 05:11:02;;;;;;;19.60;9.57;;;16.90;64.50;;;;;;5103756;27;43478;-72
2022/12/10 05:13:32;;;;;;;18.37;9.03;;;17.00;64.30;;;;;;5103249;27;45838;-73
2022/12/10 05:16:02;;;;;;;20.17;8.77;;;17.10;63.90;;;;;;5104606;27;43452;-72
2022/12/10 05:18:32;;;;;;;15.17;8.13;;;17.10;63.40;;;;;;5108189;27;44049;-71
2022/12/10 05:21:00;;;;;;;22.20;9.53;;;17.10;63.20;;;;;;5107269;27;43477;-71
2022/12/10 05:23:29;;;;;;;14.67;7.87;;;17.10;63.30;;;;;;5106658;27;45953;-71
2022/12/10 05:26:01;;;;;;;20.57;9.53;;;17.10;63.60;;;;;;5103546;27;44026;-73
2022/12/10 05:28:31;;;;;;;15.97;8.20;;;17.10;63.40;;;;;;5102697;27;43448;-72
2022/12/10 05:30:58;;;;;;;15.93;8.10;;;17.10;63.40;;;;;;5103440;27;43513;-71
2022/12/10 05:33:27;;;;;;;14.43;8.00;;;17.00;63.50;;;;;;5101095;27;43840;-71
2022/12/10 05:35:56;;;;;;;14.50;8.10;;;17.00;63.60;;;;;;5101244;27;43473;-72
2022/12/10 05:38:24;;;;;;;16.50;8.43;;;17.00;64.50;;;;;;5102538;27;43483;-72
2022/12/10 05:40:52;;;;;;;15.57;7.97;;;17.00;64.00;;;;;;5107201;27;43561;-72
2022/12/10 05:43:25;;;;;;;15.87;7.87;;;16.90;63.80;;;;;;5105164;27;43798;-71
2022/12/10 05:45:54;;;;;;;16.67;8.40;;;17.00;63.90;;;;;;5104630;27;44871;-71
2022/12/10 05:48:23;;;;;;;16.80;8.00;;;16.90;63.80;;;;;;5101110;27;43584;-72
2022/12/10 05:50:50;;;;;;;15.60;7.80;;;16.90;63.80;;;;;;5108673;27;43422;-72
2022/12/10 05:53:18;;;;;;;16.03;8.10;;;16.90;63.80;;;;;;5102423;27;43902;-72
2022/12/10 05:55:46;;;;;;;15.73;8.33;;;16.80;63.90;;;;;;5106643;27;44700;-73
2022/12/10 05:58:14;;;;;;;16.07;8.20;;;16.90;64.10;;;;;;5106775;27;43942;-71
2022/12/10 06:00:42;;;;;;;14.80;8.27;;;16.90;63.90;;;;;;5103711;27;43468;-72
2022/12/10 06:03:12;;;;;;;12.30;7.77;;;16.90;64.00;;;;;;5103779;27;44049;-72
2022/12/10 06:05:41;;;;;;;13.43;7.63;;;16.90;63.90;;;;;;5102275;27;43378;-73
2022/12/10 06:08:09;;;;;;;14.07;7.77;;;16.90;63.90;;;;;;5110344;27;43916;-71
2022/12/10 06:10:37;;;;;;;12.27;7.47;;;16.90;63.90;;;;;;5105404;27;43435;-72
2022/12/10 06:13:05;;;;;;;13.13;7.30;;;16.80;64.20;;;;;;5101159;27;44710;-71
2022/12/10 06:15:33;;;;;;;17.10;8.27;;;16.90;64.40;;;;;;5099010;27;44119;-72
2022/12/10 06:18:01;;;;;;;15.87;7.53;;;17.00;64.00;;;;;;5107152;27;43918;-72
2022/12/10 06:20:30;;;;;;;13.03;7.47;;;17.10;63.40;;;;;;5102431;27;43946;-73
2022/12/10 06:22:58;;;;;;;12.97;7.37;;;17.10;63.20;;;;;;5099978;27;45674;-72
2022/12/10 06:25:26;;;;;;;14.03;7.13;;;17.10;63.30;;;;;;5099474;27;44079;-72
2022/12/10 06:27:54;;;;;;;11.57;6.70;;;17.10;63.50;;;;;;5100427;27;43522;-73
2022/12/10 06:30:22;;;;;;;12.73;7.07;;;17.00;63.40;;;;;;5102765;27;43590;-72
2022/12/10 06:32:50;;;;;;;12.07;6.93;;;17.00;63.50;;;;;;5099567;27;44212;-71
2022/12/10 06:35:18;;;;;;;10.80;6.87;;;17.00;63.60;;;;;;5124263;27;44617;-72
2022/12/10 06:37:47;;;;;;;10.57;6.27;;;17.00;63.70;;;;;;5105316;27;43469;-71
2022/12/10 06:40:15;;;;;;;12.77;7.20;;;16.90;63.70;;;;;;5099964;27;43504;-71
2022/12/10 06:42:44;;;;;;;14.13;6.47;;;16.90;63.80;;;;;;5108904;27;43882;-74
2022/12/10 06:45:12;;;;;;;14.27;6.93;;;16.90;64.20;;;;;;5099692;27;43456;-72
2022/12/10 06:47:40;;;;;;;9.43;5.93;;;16.80;63.80;;;;;;5099794;27;43480;-71
2022/12/10 06:50:10;;;;;;;11.63;6.47;;;16.90;63.90;;;;;;5093601;27;43304;-71
2022/12/10 06:52:40;;;;;;;15.27;6.60;;;16.90;63.90;;;;;;5104036;27;45895;-72
2022/12/10 06:55:09;;;;;;;17.17;6.43;;;16.90;63.90;;;;;;5101729;27;43493;-72
2022/12/10 06:57:37;;;;;;;11.00;5.87;;;16.90;64.00;;;;;;5102469;27;43422;-72
2022/12/10 07:00:06;;;;;;;11.47;6.73;;;16.90;64.10;;;;;;5114932;27;43574;-72
2022/12/10 07:02:34;;;;;;;13.20;6.37;;;16.90;64.40;;;;;;5104644;27;43724;-72
2022/12/10 07:05:03;;;;;;;10.90;5.73;;;17.00;64.20;;;;;;5106154;27;44675;-72
2022/12/10 07:07:31;;;;;;;8.70;6.27;;;17.00;63.60;;;;;;5105019;27;43467;-71
2022/12/10 07:09:59;;;;;;;9.17;5.97;;;17.00;63.30;;;;;;5107320;27;43590;-72
2022/12/10 07:12:28;;;;;;;11.47;6.33;;;17.10;63.40;;;;;;5107953;27;44080;-73
2022/12/10 07:14:56;;;;;;;9.10;5.63;;;17.00;63.30;;;;;;5111173;27;43439;-73
2022/12/10 07:17:24;;;;;;;10.93;5.93;;;17.00;63.70;;;;;;5107180;27;43499;-71
2022/12/10 07:19:52;;;;;;;9.50;5.83;;;17.00;63.50;;;;;;5131308;27;43486;-71
2022/12/10 07:22:19;;;;;;;8.97;5.90;;;17.00;63.30;;;;;;5102276;27;44197;-72
2022/12/10 07:24:49;;;;;;;9.13;6.17;;;17.00;63.40;;;;;;5112598;27;43503;-72
2022/12/10 07:27:17;;;;;;;6.93;5.50;;;17.00;63.50;;;;;;5106671;27;44042;-72
2022/12/10 07:29:46;;;;;;;10.67;6.20;;;17.00;63.50;;;;;;5109470;27;43453;-73
2022/12/10 07:32:14;;;;;;;8.60;5.40;;;16.90;63.80;;;;;;5104533;27;44342;-73
2022/12/10 07:34:42;;;;;;;8.73;6.20;;;17.00;63.70;;;;;;5101666;27;43465;-71
2022/12/10 07:37:10;;;;;;;9.73;5.60;;;17.00;63.70;;;;;;5104724;27;43500;-71
2022/12/10 07:39:38;;;;;;;6.13;5.20;;;16.90;63.60;;;;;;5117566;27;44162;-71
2022/12/10 07:42:06;;;;;;;6.87;5.07;;;16.90;63.60;;;;;;5099858;27;43851;-72
2022/12/10 07:44:38;;;;;;;7.57;5.27;;;16.90;63.80;;;;;;5098095;27;43425;-71
2022/12/10 07:47:07;;;;;;;6.43;5.10;;;16.90;63.80;;;;;;5114929;27;43572;-71
2022/12/10 07:49:35;;;;;;;8.77;5.40;;;16.90;64.30;;;;;;5111792;27;43491;-73
2022/12/10 07:52:03;;;;;;;6.17;4.80;;;16.90;64.30;;;;;;5108758;27;44111;-73
2022/12/10 07:54:31;;;;;;;5.83;4.90;;;17.00;63.90;;;;;;5098456;27;43494;-72
2022/12/10 07:56:58;;;;;;;8.23;5.40;;;17.10;63.50;;;;;;5104854;27;43814;-72
2022/12/10 07:59:26;;;;;;;6.93;5.50;;;17.10;63.30;;;;;;5107166;27;43519;-73
2022/12/10 08:01:54;;;;;;;5.40;4.43;;;17.00;63.30;;;;;;5100128;27;46028;-71
2022/12/10 08:04:24;;;;;;;4.90;4.50;;;17.00;63.40;;;;;;5107106;27;43532;-71
2022/12/10 08:06:55;;;;;;;7.77;5.30;;;17.00;63.70;;;;;;5110835;27;44075;-71
2022/12/10 08:09:23;;;;;;;5.80;4.90;;;17.00;63.50;;;;;;5104469;27;43508;-73
2022/12/10 08:11:50;;;;;;;5.93;4.70;;;17.00;63.50;;;;;;5108034;27;43925;-72
2022/12/10 08:14:18;;;;;;;5.13;4.63;;;17.00;63.60;;;;;;5108482;27;43914;-72
2022/12/10 08:16:46;;;;;;;4.83;4.40;;;16.90;63.50;;;;;;5108480;27;43352;-71
2022/12/10 08:19:14;;;;;;;5.80;4.40;;;16.90;63.60;;;;;;5103378;27;44968;-72
2022/12/10 08:21:51;;;;;;;5.00;4.60;;;16.90;63.90;;;;;;5109570;27;43946;-73
2022/12/10 08:24:19;;;;;;;6.53;4.80;;;16.90;63.80;;;;;;5109122;27;43534;-72
2022/12/10 08:26:47;;;;;;;4.67;4.17;;;16.90;63.70;;;;;;5097036;27;44008;-72
2022/12/10 08:29:14;;;;;;;4.97;4.30;;;16.90;63.70;;;;;;5102048;27;43452;-73
2022/12/10 08:31:43;;;;;;;5.50;4.10;;;16.80;63.70;;;;;;5109212;27;46192;-71
2022/12/10 08:34:13;;;;;;;4.40;3.90;;;16.90;63.80;;;;;;5099530;27;43437;-72
2022/12/10 08:36:41;;;;;;;6.27;4.70;;;16.80;63.90;;;;;;5110430;27;43503;-73
2022/12/10 08:39:14;;;;;;;4.73;4.20;;;16.80;64.20;;;;;;5106235;27;43551;-72
2022/12/10 08:41:43;;;;;;;4.20;3.87;;;17.00;64.00;;;;;;5099491;27;43618;-72
2022/12/10 08:44:11;;;;;;;4.57;4.20;;;17.00;63.50;;;;;;5110834;27;45960;-72
2022/12/10 08:46:39;;;;;;;4.70;4.20;;;17.00;63.40;;;;;;5123092;27;43415;-71
2022/12/10 08:49:07;;;;;;;5.03;4.53;;;17.00;63.40;;;;;;5115874;27;43554;-72
2022/12/10 08:51:35;;;;;;;4.40;4.10;;;16.90;63.40;;;;;;5117973;27;45550;-73
2022/12/10 08:54:04;;;;;;;4.60;4.10;;;16.90;63.80;;;;;;5117892;27;43444;-72
2022/12/10 08:56:33;;;;;;;4.30;3.90;;;16.90;63.60;;;;;;5107277;27;43965;-73
2022/12/10 08:59:01;;;;;;;4.97;4.37;;;16.90;63.60;;;;;;5120396;27;43579;-72
2022/12/10 09:01:29;;;;;;;4.17;3.87;;;16.90;63.70;;;;;;5099325;27;45697;-74
2022/12/10 09:03:57;;;;;;;4.73;4.30;;;16.90;63.80;;;;;;5106141;27;44310;-72
2022/12/10 09:06:25;;;;;;;4.47;4.07;;;16.90;63.80;;;;;;5105781;27;43416;-72
2022/12/10 09:08:53;;;;;;;4.37;3.90;;;16.90;63.80;;;;;;5122597;27;43457;-73
2022/12/10 09:11:22;;;;;;;4.57;3.97;;;16.90;63.90;;;;;;5121295;27;43954;-70
2022/12/10 09:13:52;;;;;;;4.33;3.93;;;16.90;63.70;;;;;;5116300;27;43878;-72
2022/12/10 09:16:22;;;;;;;4.30;4.00;;;17.00;63.50;;;;;;5116101;27;43480;-72
2022/12/10 09:18:50;;;;;;;3.93;3.60;;;17.00;63.50;;;;;;5106931;27;43434;-71
2022/12/10 09:21:18;;;;;;;5.47;4.03;;;17.00;63.50;;;;;;5112422;27;45286;-71
2022/12/10 09:23:46;;;;;;;6.13;3.63;;;17.00;64.00;;;;;;5110293;27;43475;-72
2022/12/10 09:26:15;;;;;;;4.30;3.90;;;16.90;64.40;;;;;;5114396;27;43448;-71
2022/12/10 09:28:43;;;;;;;4.77;3.67;;;16.90;63.60;;;;;;5119849;27;43452;-70
2022/12/10 09:31:13;;;;;;;4.43;4.03;;;16.90;63.70;;;;;;5116942;27;43622;-71
2022/12/10 09:33:47;;;;;;;4.00;3.70;;;16.90;63.70;;;;;;5116358;27;43387;-71
2022/12/10 09:36:15;;;;;;;3.93;3.70;;;16.90;63.70;;;;;;5123802;27;43446;-71
2022/12/10 09:38:44;;;;;;;4.17;3.77;;;16.90;63.80;;;;;;5115528;27;43413;-72
2022/12/10 09:41:32;;;;;;;5.40;3.90;;;16.90;63.80;;;;;;5113750;27;43841;-71
2022/12/10 09:44:01;;;;;;;4.20;3.90;;;16.90;63.90;;;;;;5110014;27;45647;-70
2022/12/10 09:46:34;;;;;;;3.60;3.40;;;17.00;63.70;;;;;;5103385;27;43380;-71
2022/12/10 09:49:06;;;;;;;4.13;3.60;;;17.10;63.40;;;;;;5117173;27;43424;-71
2022/12/10 09:51:35;;;;;;;3.90;3.60;;;17.20;63.00;;;;;;5119197;27;43927;-70
2022/12/10 09:54:04;;;;;;;5.07;3.70;;;17.40;62.60;;;;;;5121424;27;43355;-70
2022/12/10 09:56:34;;;;;;;3.53;3.33;;;17.50;62.00;;;;;;5113915;27;44106;-70
2022/12/10 09:59:04;;;;;;;3.73;3.53;;;17.70;61.50;;;;;;5121549;27;44224;-70
2022/12/10 10:01:33;;;;;;;3.83;3.63;;;17.80;60.90;;;;;;5108557;27;43889;-70
2022/12/10 10:04:03;;;;;;;3.47;3.27;;;17.90;60.70;;;;;;5114034;27;44683;-72
2022/12/10 10:06:31;;;;;;;3.97;3.67;;;18.00;60.20;;;;;;5106365;27;43461;-71
2022/12/10 10:09:00;;;;;;;3.47;3.23;;;18.10;59.90;;;;;;5108119;27;43501;-70
2022/12/10 10:11:30;;;;;;;3.70;3.40;;;18.10;59.80;;;;;;5110947;27;43892;-72
2022/12/10 10:13:59;;;;;;;3.57;3.30;;;18.10;60.00;;;;;;5114586;27;43458;-71
2022/12/10 10:16:27;;;;;;;3.53;3.33;;;17.90;60.10;;;;;;5099555;27;45425;-71
2022/12/10 10:18:58;;;;;;;3.17;3.07;;;17.80;60.50;;;;;;5103882;27;44048;-70
2022/12/10 10:21:28;;;;;;;3.50;3.23;;;17.60;60.90;;;;;;5097733;27;46142;-72
2022/12/10 10:23:56;;;;;;;3.30;3.00;;;17.50;61.60;;;;;;5118341;27;43846;-70
2022/12/10 10:26:25;;;;;;;3.77;3.50;;;17.40;61.50;;;;;;5105651;27;43507;-71
2022/12/10 10:28:55;;;;;;;3.20;3.00;;;17.40;61.70;;;;;;5103075;27;43922;-70
2022/12/10 10:31:24;;;;;;;3.10;3.00;;;17.30;61.90;;;;;;5110594;27;43893;-71
2022/12/10 10:33:56;;;;;;;3.40;3.20;;;17.20;61.90;;;;;;5109120;27;44410;-72
2022/12/10 10:36:27;;;;;;;3.90;3.60;;;17.20;62.20;;;;;;5118610;27;43506;-72
2022/12/10 10:38:55;;;;;;;3.83;3.63;;;17.10;62.50;;;;;;5123820;27;43447;-71
2022/12/10 10:41:24;;;;;;;3.20;3.00;;;17.10;62.40;;;;;;5122803;27;45595;-70
2022/12/10 10:43:55;;;;;;;3.27;3.17;;;17.10;62.40;;;;;;5115508;27;43500;-70
2022/12/10 10:46:23;;;;;;;3.40;3.20;;;17.10;62.40;;;;;;5119755;27;43977;-72
2022/12/10 10:48:51;;;;;;;3.30;3.20;;;17.10;62.60;;;;;;5117979;27;43562;-71
2022/12/10 10:51:22;;;;;;;3.23;3.03;;;17.00;62.50;;;;;;5112110;27;43906;-70
2022/12/10 10:53:52;;;;;;;3.40;3.20;;;17.00;62.90;;;;;;5111506;27;44710;-71
2022/12/10 10:56:21;;;;;;;3.40;3.20;;;17.10;62.70;;;;;;5122923;27;43476;-70
2022/12/10 10:58:55;;;;;;;3.30;3.10;;;17.20;62.60;;;;;;5116414;27;44072;-71
2022/12/10 11:01:25;;;;;;;3.30;3.20;;;17.20;62.10;;;;;;5118925;27;43917;-72
2022/12/10 11:03:55;;;;;;;3.20;3.10;;;17.20;62.00;;;;;;5118889;27;43423;-70
2022/12/10 11:06:23;;;;;;;3.33;3.17;;;17.20;62.10;;;;;;5121384;27;43465;-70
2022/12/10 11:08:55;;;;;;;3.10;3.00;;;17.20;62.30;;;;;;5117296;27;44035;-71
2022/12/10 11:11:26;;;;;;;3.00;2.90;;;17.20;62.10;;;;;;5114916;27;43925;-71
2022/12/10 11:13:55;;;;;;;3.13;3.03;;;17.10;62.10;;;;;;5118933;27;44126;-70
2022/12/10 11:16:24;;;;;;;3.17;3.07;;;17.10;62.20;;;;;;5110353;27;43416;-70
2022/12/10 11:18:56;;;;;;;3.07;2.97;;;17.10;62.30;;;;;;5118282;27;43366;-72
2022/12/10 11:21:24;;;;;;;3.40;3.03;;;17.10;62.40;;;;;;5112775;27;43930;-72
2022/12/10 11:23:55;;;;;;;3.27;3.17;;;17.00;62.60;;;;;;5116435;27;43586;-70
2022/12/10 11:26:33;;;;;;;3.17;3.07;;;17.00;62.50;;;;;;5109458;27;43762;-70
2022/12/10 11:29:13;;;;;;;2.83;2.73;;;17.00;62.50;;;;;;5115575;27;43701;-71
2022/12/10 11:31:50;;;;;;;3.07;2.97;;;17.00;62.50;;;;;;5119034;27;43938;-71
2022/12/10 11:34:20;;;;;;;3.10;3.00;;;17.00;62.50;;;;;;5111126;27;43395;-72
2022/12/10 11:36:55;;;;;;;2.90;2.80;;;17.00;62.50;;;;;;5116114;27;43353;-70
2022/12/10 11:39:45;;;;;;;3.20;3.10;;;17.00;62.90;;;;;;5105354;27;43450;-71
2022/12/10 11:42:15;;;;;;;3.00;2.90;;;17.00;63.00;;;;;;5099240;27;44105;-72
2022/12/10 11:44:48;;;;;;;2.93;2.83;;;17.10;62.60;;;;;;5113293;27;44078;-70
2022/12/10 11:47:24;;;;;;;2.90;2.80;;;17.10;62.30;;;;;;5123304;27;43933;-72
2022/12/10 11:49:58;;;;;;;2.93;2.83;;;17.10;62.20;;;;;;5123688;27;43416;-71
2022/12/10 11:52:33;;;;;;;2.70;2.60;;;17.20;62.40;;;;;;5120872;27;43884;-70
2022/12/10 11:55:08;;;;;;;3.20;3.10;;;17.10;62.70;;;;;;5109349;27;45079;-73
2022/12/10 11:57:44;;;;;;;3.10;3.00;;;17.10;62.40;;;;;;5128070;27;43447;-71
2022/12/10 12:00:19;;;;;;;2.93;2.83;;;17.10;62.40;;;;;;5117516;27;43866;-70
2022/12/10 12:03:01;;;;;;;2.77;2.67;;;17.10;62.50;;;;;;5106128;27;44123;-71
2022/12/10 12:05:41;;;;;;;3.30;3.10;;;17.10;62.60;;;;;;5095990;27;44115;-70
2022/12/10 12:08:13;;;;;;;3.10;2.90;;;17.10;62.60;;;;;;5106887;27;43431;-71
2022/12/10 12:11:16;;;;;;;3.00;2.90;;;17.00;62.70;;;;;;5097899;27;44136;-74
2022/12/10 12:13:49;;;;;;;2.83;2.73;;;17.00;62.60;;;;;;5012999;28;44058;-71
2022/12/10 12:16:18;;;;;;;3.00;2.90;;;17.00;62.60;;;;;;5093413;27;43528;-70
2022/12/10 12:18:48;;;;;;;2.70;2.60;;;17.00;62.70;;;;;;5107471;27;44161;-71
2022/12/10 12:21:16;;;;;;;2.67;2.60;;;17.00;62.70;;;;;;5106639;27;43447;-71
2022/12/10 12:23:48;;;;;;;2.83;2.73;;;17.00;62.70;;;;;;5114792;27;44640;-71
2022/12/10 12:26:21;;;;;;;2.70;2.60;;;17.00;62.90;;;;;;5095342;27;44116;-71
2022/12/10 12:28:51;;;;;;;3.10;3.00;;;17.00;63.70;;;;;;5119755;27;43474;-71
2022/12/10 12:31:21;;;;;;;2.80;2.70;;;17.10;63.00;;;;;;5118294;27;43446;-72
2022/12/10 12:33:51;;;;;;;2.70;2.60;;;17.20;62.50;;;;;;5107329;27;43837;-71
2022/12/10 12:36:22;;;;;;;2.63;2.53;;;17.20;62.40;;;;;;5110356;27;43600;-71
2022/12/10 12:38:58;;;;;;;2.80;2.70;;;17.10;62.30;;;;;;5108786;27;43414;-70
2022/12/10 12:41:32;;;;;;;2.30;2.30;;;17.10;62.50;;;;;;5108702;27;43620;-71
2022/12/10 12:44:04;;;;;;;2.70;2.60;;;17.10;62.40;;;;;;5103940;27;43935;-71
2022/12/10 12:46:35;;;;;;;2.20;2.20;;;17.10;62.40;;;;;;5108665;27;43457;-71
2022/12/10 12:49:04;;;;;;;2.50;2.40;;;17.10;62.50;;;;;;5107608;27;43485;-70
2022/12/10 12:51:34;;;;;;;2.70;2.60;;;17.10;62.60;;;;;;5100929;27;43546;-73
2022/12/10 12:54:02;;;;;;;2.70;2.60;;;17.10;62.60;;;;;;5101661;27;44008;-72
2022/12/10 12:56:40;;;;;;;2.30;2.30;;;17.00;62.60;;;;;;5097106;27;43536;-71
2022/12/10 12:59:12;;;;;;;2.43;2.33;;;17.00;62.70;;;;;;5106914;27;43438;-71
2022/12/10 13:01:41;;;;;;;2.40;2.30;;;17.00;62.70;;;;;;5103490;27;43478;-70
2022/12/10 13:04:10;;;;;;;2.60;2.50;;;17.00;62.70;;;;;;5107854;27;45952;-71
2022/12/10 13:06:38;;;;;;;2.40;2.40;;;17.00;62.70;;;;;;5107842;27;43417;-70
2022/12/10 13:09:18;;;;;;;2.03;2.03;;;17.00;62.80;;;;;;5109223;27;43412;-71